Time;durP1;ratioP1;P1;durP2;ratioP2;P2;SDS_P1;SDS_P2;PMS_P1;PMS_P2;Temp;Humidity;BMP_temperature;BMP_pressure;BME280_temperature;BME280_humidity;BME280_pressure;Samples;Min_cycle;Max_cycle;Signal;HPM_P1;HPM_P2
2023/11/11 00:00:12;;;;;;;18.43;10.87;;;;;;;9.36;76.55;99089.91;5089270;28;20568;-69
2023/11/11 00:02:41;;;;;;;16.43;11.47;;;;;;;9.38;76.32;99082.97;5090233;28;20196;-66
2023/11/11 00:05:09;;;;;;;16.57;10.63;;;;;;;9.41;75.81;99083.75;5090603;28;20196;-67
2023/11/11 00:07:37;;;;;;;14.90;10.90;;;;;;;9.38;75.59;99077.84;5090337;28;20203;-66
2023/11/11 00:10:09;;;;;;;17.07;10.10;;;;;;;9.36;76.15;99064.19;5087753;28;20688;-66
2023/11/11 00:12:38;;;;;;;15.07;10.57;;;;;;;9.38;75.82;99073.53;5089501;28;20205;-67
2023/11/11 00:15:11;;;;;;;16.00;10.50;;;;;;;9.39;76.23;99075.25;5098290;28;20608;-67
2023/11/11 00:17:39;;;;;;;17.00;10.83;;;;;;;9.39;76.34;99067.53;5086994;28;20240;-69
2023/11/11 00:20:12;;;;;;;17.27;11.23;;;;;;;9.40;76.19;99073.53;5087226;28;20291;-71
2023/11/11 00:22:43;;;;;;;13.10;10.63;;;;;;;9.39;76.10;99071.84;5092454;28;20208;-67
2023/11/11 00:25:12;;;;;;;14.90;10.20;;;;;;;9.39;76.13;99074.41;5092569;28;20201;-68
2023/11/11 00:27:41;;;;;;;18.10;11.50;;;;;;;9.35;76.08;99071.06;5096906;28;20597;-67
2023/11/11 00:30:14;;;;;;;14.57;11.23;;;;;;;9.35;76.07;99065.91;5095535;28;20219;-67
2023/11/11 00:32:44;;;;;;;15.13;10.80;;;;;;;9.34;76.58;99060.78;5087158;28;20284;-67
2023/11/11 00:35:12;;;;;;;16.80;10.87;;;;;;;9.34;76.35;99058.22;5088875;28;20211;-67
2023/11/11 00:37:40;;;;;;;17.10;10.87;;;;;;;9.29;76.92;99048.06;5093124;28;20272;-68
2023/11/11 00:40:10;;;;;;;16.70;10.93;;;;;;;9.30;77.05;99054.88;5095638;28;20576;-68
2023/11/11 00:42:38;;;;;;;19.20;11.13;;;;;;;9.33;76.95;99053.97;5086283;28;20193;-69
2023/11/11 00:45:07;;;;;;;15.57;10.83;;;;;;;9.34;76.92;99047.94;5085916;28;20296;-68
2023/11/11 00:47:37;;;;;;;16.10;10.93;;;;;;;9.36;77.17;99053.91;5088738;28;20200;-68
2023/11/11 00:50:09;;;;;;;14.27;10.47;;;;;;;9.31;76.43;99048.00;5090140;28;20675;-67
2023/11/11 00:52:37;;;;;;;16.57;11.43;;;;;;;9.28;76.88;99055.78;5085142;28;20287;-69
2023/11/11 00:55:07;;;;;;;14.67;11.07;;;;;;;9.27;77.11;99052.38;5087511;28;20603;-68
2023/11/11 00:57:35;;;;;;;15.63;10.70;;;;;;;9.27;77.25;99043.81;5089315;28;20284;-70
2023/11/11 01:00:04;;;;;;;13.90;10.83;;;;;;;9.27;77.43;99043.81;5089143;28;20924;-67
2023/11/11 01:02:32;;;;;;;15.23;10.97;;;;;;;9.27;77.60;99041.25;5093499;28;20682;-68
2023/11/11 01:05:01;;;;;;;14.13;10.60;;;;;;;9.29;77.74;99037.78;5094149;28;20201;-67
2023/11/11 01:07:30;;;;;;;14.67;10.80;;;;;;;9.28;77.84;99036.09;5093996;28;20224;-68
2023/11/11 01:09:58;;;;;;;13.90;10.33;;;;;;;9.30;77.77;99025.75;5092998;28;20299;-68
2023/11/11 01:12:26;;;;;;;14.13;9.90;;;;;;;9.29;77.33;99024.06;5092999;28;20197;-67
2023/11/11 01:14:57;;;;;;;13.70;10.40;;;;;;;9.30;77.87;99031.75;5091635;28;20207;-67
2023/11/11 01:17:25;;;;;;;14.30;10.50;;;;;;;9.28;77.90;99030.06;5089269;28;20277;-72
2023/11/11 01:19:54;;;;;;;13.90;9.80;;;;;;;9.28;77.50;99024.94;5093669;28;20200;-73
2023/11/11 01:22:23;;;;;;;16.30;11.10;;;;;;;9.26;78.03;99016.44;5090365;28;20296;-72
2023/11/11 01:24:52;;;;;;;14.30;10.83;;;;;;;9.29;77.63;99016.38;5093560;28;20293;-73
2023/11/11 01:27:21;;;;;;;14.17;9.90;;;;;;;9.33;78.10;99017.97;5082375;28;20208;-71
2023/11/11 01:29:49;;;;;;;15.70;10.30;;;;;;;9.35;77.92;99006.78;5091123;28;20224;-72
2023/11/11 01:32:19;;;;;;;14.03;9.53;;;;;;;9.37;77.81;98999.88;5090395;28;20648;-72
2023/11/11 01:34:47;;;;;;;14.00;10.03;;;;;;;9.34;77.95;98994.78;5096572;28;20208;-75
2023/11/11 01:37:16;;;;;;;13.77;9.73;;;;;;;9.32;77.31;98990.59;5094277;28;20207;-73
2023/11/11 01:39:47;;;;;;;13.03;10.20;;;;;;;9.37;77.57;98994.72;5095479;28;20304;-73
2023/11/11 01:42:15;;;;;;;12.50;9.33;;;;;;;9.35;77.57;98988.78;5100621;28;20296;-73
2023/11/11 01:44:43;;;;;;;12.73;9.70;;;;;;;9.34;77.84;98981.94;5094042;28;20722;-72
2023/11/11 01:47:13;;;;;;;12.43;10.03;;;;;;;9.29;77.89;98977.81;5095668;28;20211;-74
2023/11/11 01:49:41;;;;;;;15.50;10.27;;;;;;;9.34;77.79;98991.38;5092350;28;20562;-73
2023/11/11 01:52:10;;;;;;;12.20;9.60;;;;;;;9.36;78.23;98987.91;5086572;28;20205;-73
2023/11/11 01:54:39;;;;;;;13.87;9.67;;;;;;;9.38;77.74;98990.44;5097294;28;20654;-72
2023/11/11 01:57:09;;;;;;;13.40;9.87;;;;;;;9.38;77.50;98996.41;5092669;28;20220;-71
2023/11/11 01:59:39;;;;;;;13.73;9.90;;;;;;;9.35;77.73;98991.38;5101713;28;20295;-71
2023/11/11 02:02:07;;;;;;;14.23;9.40;;;;;;;9.35;78.12;99000.78;5099777;28;20218;-74
2023/11/11 02:04:36;;;;;;;11.83;9.77;;;;;;;9.33;77.78;98992.28;5091940;28;20295;-74
2023/11/11 02:07:05;;;;;;;12.93;9.70;;;;;;;9.32;77.71;98988.88;5101189;28;20296;-71
2023/11/11 02:09:33;;;;;;;15.77;10.87;;;;;;;9.32;77.81;98991.44;5092129;28;20197;-72
2023/11/11 02:12:02;;;;;;;13.90;10.10;;;;;;;9.28;77.62;98983.81;5091350;28;20228;-72
2023/11/11 02:14:34;;;;;;;14.13;10.27;;;;;;;9.22;77.52;98989.13;5095680;28;20651;-72
2023/11/11 02:17:03;;;;;;;14.17;10.47;;;;;;;9.14;77.65;98995.28;5092960;28;20259;-70
2023/11/11 02:19:31;;;;;;;15.27;11.03;;;;;;;9.16;77.60;99000.34;5091702;28;20213;-72
2023/11/11 02:21:59;;;;;;;14.53;9.93;;;;;;;9.14;76.87;98997.00;5111436;28;20698;-74
2023/11/11 02:24:32;;;;;;;14.97;10.70;;;;;;;9.09;76.83;98994.50;5087911;28;20196;-69
2023/11/11 02:27:00;;;;;;;16.07;11.03;;;;;;;9.10;77.04;99000.53;5092888;28;20221;-71
2023/11/11 02:29:28;;;;;;;13.10;10.03;;;;;;;9.08;77.12;98997.13;5093256;28;20652;-67
2023/11/11 02:31:56;;;;;;;15.23;10.20;;;;;;;9.08;77.72;98997.97;5090771;28;20250;-67
2023/11/11 02:34:24;;;;;;;15.30;11.30;;;;;;;9.13;77.20;98996.16;5092385;28;20205;-65
2023/11/11 02:36:53;;;;;;;14.93;10.83;;;;;;;9.12;76.75;98994.44;5090421;28;20208;-66
2023/11/11 02:39:31;;;;;;;14.10;9.83;;;;;;;9.09;77.24;98989.38;5091329;28;20547;-66
2023/11/11 02:41:59;;;;;;;11.67;9.33;;;;;;;9.07;77.49;98993.72;5090247;28;20201;-67
2023/11/11 02:44:27;;;;;;;15.13;10.37;;;;;;;9.05;77.44;98992.88;5091013;28;20205;-67
2023/11/11 02:46:55;;;;;;;13.67;10.17;;;;;;;9.04;77.10;98986.06;5089256;28;20214;-69
2023/11/11 02:49:23;;;;;;;15.63;10.93;;;;;;;9.03;77.02;98993.81;5092486;28;20234;-66
2023/11/11 02:51:51;;;;;;;14.67;10.73;;;;;;;9.01;77.80;98986.13;5092766;28;20669;-65
2023/11/11 02:54:20;;;;;;;15.73;10.23;;;;;;;9.05;78.23;98987.75;5092812;28;20215;-66
2023/11/11 02:56:49;;;;;;;15.63;11.17;;;;;;;9.11;78.16;98982.47;5090919;28;20292;-65
2023/11/11 02:59:17;;;;;;;14.87;10.07;;;;;;;9.15;77.57;98989.25;5090755;28;20610;-67
2023/11/11 03:01:45;;;;;;;15.10;10.77;;;;;;;9.16;78.08;98985.78;5089740;28;20356;-66
2023/11/11 03:04:12;;;;;;;16.80;10.97;;;;;;;9.21;77.58;98990.00;5100355;28;20261;-66
2023/11/11 03:06:42;;;;;;;14.90;9.87;;;;;;;9.22;77.54;98986.53;5087993;28;20212;-64
2023/11/11 03:09:11;;;;;;;15.73;11.30;;;;;;;9.17;76.86;98979.78;5080777;28;20331;-68
2023/11/11 03:11:39;;;;;;;14.47;10.43;;;;;;;9.08;77.35;98964.56;5095194;28;20223;-66
2023/11/11 03:14:09;;;;;;;16.33;10.80;;;;;;;9.06;78.04;98983.47;5097376;28;20202;-69
2023/11/11 03:16:38;;;;;;;15.67;10.97;;;;;;;9.04;77.90;98974.94;5091493;28;20261;-68
2023/11/11 03:19:07;;;;;;;12.47;9.97;;;;;;;9.02;78.17;98981.84;5088863;28;20233;-68
2023/11/11 03:21:36;;;;;;;17.93;10.97;;;;;;;9.04;78.50;98975.78;5087488;28;20200;-67
2023/11/11 03:24:04;;;;;;;15.80;10.73;;;;;;;9.10;78.16;98970.53;5086212;28;20215;-66
2023/11/11 03:26:33;;;;;;;14.30;9.70;;;;;;;9.15;78.02;98975.56;5089015;28;20211;-69
2023/11/11 03:29:01;;;;;;;15.77;9.57;;;;;;;9.19;77.46;98972.03;5095077;28;20570;-65
2023/11/11 03:31:30;;;;;;;12.97;10.40;;;;;;;9.19;77.20;98970.28;5101405;28;20231;-65
2023/11/11 03:33:58;;;;;;;14.73;10.13;;;;;;;9.18;77.15;98970.34;5087119;28;20204;-66
2023/11/11 03:36:27;;;;;;;13.47;9.63;;;;;;;9.16;77.19;98967.78;5095699;28;20739;-66
2023/11/11 03:38:55;;;;;;;12.27;9.70;;;;;;;9.14;76.82;98966.16;5086469;28;21193;-67
2023/11/11 03:41:23;;;;;;;14.70;10.57;;;;;;;9.15;77.28;98965.28;5097415;28;20195;-64
2023/11/11 03:43:51;;;;;;;14.20;10.33;;;;;;;9.09;77.51;98968.81;5090468;28;20223;-66
2023/11/11 03:46:19;;;;;;;15.67;10.47;;;;;;;9.06;77.30;98965.50;5091288;28;20247;-65
2023/11/11 03:48:49;;;;;;;14.87;10.07;;;;;;;9.06;77.87;98975.78;5091006;28;20196;-67
2023/11/11 03:51:17;;;;;;;16.23;10.90;;;;;;;9.03;77.92;98956.13;5088076;28;20228;-69
2023/11/11 03:53:45;;;;;;;13.60;10.00;;;;;;;9.07;78.09;98959.47;5096074;28;20636;-66
2023/11/11 03:56:13;;;;;;;15.03;10.47;;;;;;;9.10;77.93;98969.69;5090801;28;20224;-68
2023/11/11 03:58:41;;;;;;;16.03;9.97;;;;;;;9.08;78.36;98967.13;5088082;28;20197;-64
2023/11/11 04:01:10;;;;;;;17.57;10.60;;;;;;;9.08;77.71;98958.59;5094452;28;20245;-65
2023/11/11 04:03:39;;;;;;;16.33;10.43;;;;;;;9.04;77.65;98962.09;5089803;28;20258;-67
2023/11/11 04:06:09;;;;;;;17.13;10.70;;;;;;;9.00;78.18;98969.03;5095924;28;20729;-66
2023/11/11 04:08:38;;;;;;;14.57;11.10;;;;;;;8.96;77.87;98972.56;5084091;28;20620;-67
2023/11/11 04:11:07;;;;;;;14.70;9.93;;;;;;;8.92;77.94;98960.66;5091306;28;20197;-65
2023/11/11 04:13:38;;;;;;;13.73;10.57;;;;;;;8.87;78.67;98963.34;5089563;28;20211;-68
2023/11/11 04:16:08;;;;;;;18.90;10.23;;;;;;;8.87;78.76;98962.47;5091614;28;20197;-66
2023/11/11 04:18:37;;;;;;;13.27;9.90;;;;;;;8.91;78.38;98962.38;5091293;28;20293;-65
2023/11/11 04:21:06;;;;;;;13.57;10.43;;;;;;;8.91;78.74;98958.94;5090645;28;20257;-73
2023/11/11 04:23:35;;;;;;;14.57;11.00;;;;;;;8.95;78.86;98964.00;5077296;28;20855;-69
2023/11/11 04:26:04;;;;;;;14.83;10.53;;;;;;;8.97;78.35;98961.38;5088915;28;20558;-65
2023/11/11 04:28:32;;;;;;;13.80;10.40;;;;;;;8.90;78.69;98955.53;5090961;28;20205;-72
2023/11/11 04:31:00;;;;;;;15.10;10.73;;;;;;;8.88;79.11;98953.91;5087402;28;20209;-71
2023/11/11 04:33:29;;;;;;;16.73;11.30;;;;;;;8.83;79.45;98953.13;5087830;28;20232;-72
2023/11/11 04:35:57;;;;;;;15.07;10.63;;;;;;;8.77;79.05;98954.13;5086213;28;20307;-72
2023/11/11 04:38:25;;;;;;;14.90;10.53;;;;;;;8.71;79.78;98960.25;5095013;28;20263;-71
2023/11/11 04:40:57;;;;;;;15.73;11.57;;;;;;;8.66;80.04;98948.38;5094435;28;20212;-70
2023/11/11 04:43:25;;;;;;;14.63;11.20;;;;;;;8.69;79.91;98950.91;5093247;28;20200;-72
2023/11/11 04:45:53;;;;;;;17.10;12.20;;;;;;;8.67;79.94;98945.78;5094380;28;20604;-67
2023/11/11 04:48:21;;;;;;;15.87;11.50;;;;;;;8.71;80.48;98944.81;5093482;28;20197;-67
2023/11/11 04:50:50;;;;;;;15.53;11.97;;;;;;;8.70;80.30;98952.56;5090808;28;20684;-66
2023/11/11 04:53:19;;;;;;;16.53;11.53;;;;;;;8.67;79.77;98950.91;5095686;28;20213;-65
2023/11/11 04:55:47;;;;;;;16.47;12.17;;;;;;;8.65;80.36;98951.81;5088633;28;20208;-65
2023/11/11 04:58:17;;;;;;;15.83;11.40;;;;;;;8.65;80.55;98950.13;5092616;28;20210;-66
2023/11/11 05:00:45;;;;;;;17.10;11.57;;;;;;;8.63;80.86;98948.44;5088879;28;20652;-65
2023/11/11 05:03:14;;;;;;;14.63;10.80;;;;;;;8.59;80.02;98939.97;5092320;28;20197;-65
2023/11/11 05:05:42;;;;;;;15.80;12.03;;;;;;;8.56;80.27;98940.03;5096897;28;20712;-65
2023/11/11 05:08:10;;;;;;;14.53;11.13;;;;;;;8.52;80.91;98945.25;5095521;28;20278;-66
2023/11/11 05:10:39;;;;;;;15.77;12.20;;;;;;;8.40;81.08;98941.25;5090303;28;20254;-66
2023/11/11 05:13:08;;;;;;;15.23;12.27;;;;;;;8.38;80.93;98940.41;5088888;28;20313;-66
2023/11/11 05:15:45;;;;;;;15.43;11.87;;;;;;;8.40;81.07;98943.81;5102337;28;20201;-67
2023/11/11 05:18:14;;;;;;;15.30;11.77;;;;;;;8.40;81.42;98944.66;5099639;28;20609;-65
2023/11/11 05:20:42;;;;;;;17.67;11.57;;;;;;;8.42;81.16;98944.59;5096238;28;20596;-66
2023/11/11 05:23:10;;;;;;;14.77;11.93;;;;;;;8.45;81.37;98944.53;5096354;28;20201;-66
2023/11/11 05:25:38;;;;;;;17.07;11.97;;;;;;;8.45;81.35;98936.84;5095795;28;20212;-65
2023/11/11 05:28:07;;;;;;;17.77;12.50;;;;;;;8.48;81.29;98944.47;5094296;28;20204;-65
2023/11/11 05:30:35;;;;;;;15.37;11.63;;;;;;;8.52;81.53;98950.41;5096992;28;20197;-67
2023/11/11 05:33:06;;;;;;;15.50;11.90;;;;;;;8.52;81.46;98943.53;5097951;28;20717;-66
2023/11/11 05:35:34;;;;;;;17.57;12.80;;;;;;;8.51;80.92;98946.16;5092716;28;20215;-67
2023/11/11 05:38:03;;;;;;;16.83;12.07;;;;;;;8.51;81.18;98943.59;5094236;28;20750;-65
2023/11/11 05:40:31;;;;;;;17.63;11.77;;;;;;;8.46;81.41;98935.97;5089951;28;20204;-64
2023/11/11 05:43:00;;;;;;;15.33;11.30;;;;;;;8.48;81.26;98941.91;5102017;28;20242;-66
2023/11/11 05:45:28;;;;;;;13.80;11.23;;;;;;;8.51;80.82;98951.28;5095691;28;20819;-66
2023/11/11 05:47:56;;;;;;;15.23;11.00;;;;;;;8.49;81.09;98951.31;5088979;28;20204;-66
2023/11/11 05:50:26;;;;;;;16.17;10.73;;;;;;;8.49;80.96;98948.72;5093503;28;20201;-65
2023/11/11 05:52:54;;;;;;;17.37;11.60;;;;;;;8.44;80.08;98943.69;5093351;28;20231;-65
2023/11/11 05:55:24;;;;;;;14.87;10.53;;;;;;;8.47;80.35;98953.06;5097612;28;20232;-67
2023/11/11 05:57:52;;;;;;;15.67;10.83;;;;;;;8.42;79.72;98944.59;5091248;28;20862;-63
2023/11/11 06:00:21;;;;;;;13.50;10.57;;;;;;;8.45;80.58;98949.69;5096567;28;20237;-71
2023/11/11 06:02:49;;;;;;;15.23;10.47;;;;;;;8.48;79.96;98947.06;5091256;28;20685;-71
2023/11/11 06:05:17;;;;;;;15.00;10.17;;;;;;;8.52;79.90;98951.25;5090116;28;20216;-69
2023/11/11 06:07:47;;;;;;;14.70;10.77;;;;;;;8.56;80.62;98955.44;5089900;28;20247;-71
2023/11/11 06:10:17;;;;;;;15.83;11.20;;;;;;;8.61;80.14;98953.59;5092307;28;20331;-71
2023/11/11 06:12:47;;;;;;;18.27;10.43;;;;;;;8.66;79.85;98953.53;5093726;28;20311;-69
2023/11/11 06:15:17;;;;;;;12.77;9.60;;;;;;;8.68;79.50;98951.75;5090373;28;20209;-71
2023/11/11 06:17:45;;;;;;;13.30;10.00;;;;;;;8.73;79.53;98955.09;5085713;28;21096;-72
2023/11/11 06:20:16;;;;;;;13.70;9.67;;;;;;;8.75;79.28;98955.03;5089844;28;20289;-72
2023/11/11 06:22:45;;;;;;;12.97;9.77;;;;;;;8.74;78.27;98954.19;5104529;28;20199;-71
2023/11/11 06:25:34;;;;;;;13.17;8.50;;;;;;;8.78;78.42;98949.84;5090979;28;20200;-71
2023/11/11 06:28:02;;;;;;;13.80;9.33;;;;;;;8.77;77.52;98949.00;5094807;28;20231;-71
2023/11/11 06:30:32;;;;;;;11.93;8.03;;;;;;;8.74;77.00;98951.63;5093282;28;20621;-71
2023/11/11 06:33:00;;;;;;;11.00;8.30;;;;;;;8.68;77.01;98947.47;5084552;28;20215;-71
2023/11/11 06:35:28;;;;;;;11.57;8.53;;;;;;;8.66;76.86;98948.38;5100113;28;20231;-70
2023/11/11 06:37:57;;;;;;;12.97;8.40;;;;;;;8.69;76.72;98949.16;5083952;28;20228;-70
2023/11/11 06:40:25;;;;;;;14.80;8.63;;;;;;;8.75;77.28;98957.59;5087366;28;20215;-71
2023/11/11 06:42:55;;;;;;;12.40;8.70;;;;;;;8.79;77.66;98946.38;5092677;28;20647;-70
2023/11/11 06:45:23;;;;;;;12.20;8.60;;;;;;;8.85;76.86;98948.84;5101939;28;20196;-73
2023/11/11 06:47:52;;;;;;;14.40;8.97;;;;;;;8.91;77.18;98948.66;5093783;28;20240;-73
2023/11/11 06:50:21;;;;;;;15.77;8.63;;;;;;;8.97;76.98;98947.69;5089744;28;20652;-73
2023/11/11 06:52:49;;;;;;;12.23;8.57;;;;;;;8.96;76.43;98936.59;5092637;28;20706;-72
2023/11/11 06:55:17;;;;;;;11.93;8.13;;;;;;;8.98;76.67;98939.94;5086117;28;20234;-72
2023/11/11 06:57:45;;;;;;;12.33;8.33;;;;;;;8.97;77.01;98938.28;5092500;28;20207;-72
2023/11/11 07:00:18;;;;;;;14.20;8.60;;;;;;;9.02;77.35;98940.72;5094504;28;20211;-73
2023/11/11 07:02:47;;;;;;;11.70;8.57;;;;;;;9.04;77.04;98944.97;5089317;28;20210;-70
2023/11/11 07:05:15;;;;;;;12.40;8.43;;;;;;;9.04;76.16;98947.53;5089879;28;20216;-71
2023/11/11 07:07:43;;;;;;;10.90;8.10;;;;;;;9.07;76.85;98939.75;5088432;28;20216;-73
2023/11/11 07:10:11;;;;;;;11.93;8.43;;;;;;;9.04;76.11;98937.25;5089777;28;20215;-68
2023/11/11 07:12:40;;;;;;;11.40;8.10;;;;;;;9.02;76.24;98939.03;5098215;28;20196;-69
2023/11/11 07:15:10;;;;;;;12.53;8.37;;;;;;;9.02;76.17;98938.16;5092609;28;20648;-66
2023/11/11 07:17:42;;;;;;;12.40;8.50;;;;;;;9.03;75.56;98938.13;5087475;28;20259;-66
2023/11/11 07:20:12;;;;;;;10.73;7.87;;;;;;;9.04;76.05;98937.25;5089683;28;20298;-67
2023/11/11 07:22:40;;;;;;;12.93;8.67;;;;;;;9.06;75.96;98935.50;5098811;28;20639;-65
2023/11/11 07:25:10;;;;;;;10.23;7.97;;;;;;;9.08;76.27;98944.00;5091001;28;20576;-68
2023/11/11 07:27:39;;;;;;;13.50;8.27;;;;;;;9.10;76.42;98943.97;5097853;28;20204;-65
2023/11/11 07:30:10;;;;;;;12.70;9.33;;;;;;;9.11;76.42;98943.94;5101152;28;20230;-72
2023/11/11 07:32:38;;;;;;;11.43;8.93;;;;;;;9.15;76.35;98942.13;5089631;28;20559;-73
2023/11/11 07:35:25;;;;;;;12.60;8.77;;;;;;;9.16;75.77;98947.22;5090523;28;20208;-72
2023/11/11 07:37:53;;;;;;;11.93;8.60;;;;;;;9.19;75.96;98944.59;5090961;28;20208;-70
2023/11/11 07:40:24;;;;;;;11.57;9.37;;;;;;;9.22;76.25;98948.81;5091663;28;20601;-72
2023/11/11 07:42:55;;;;;;;10.47;8.83;;;;;;;9.19;76.27;98943.75;5093022;28;20241;-72
2023/11/11 07:45:25;;;;;;;12.03;9.63;;;;;;;9.20;75.86;98948.00;5094765;28;20622;-74
2023/11/11 07:47:55;;;;;;;14.30;9.90;;;;;;;9.18;76.47;98944.66;5086827;28;20197;-73
2023/11/11 07:50:23;;;;;;;15.83;10.67;;;;;;;9.19;76.29;98941.19;5090913;28;20205;-71
2023/11/11 07:52:55;;;;;;;12.43;10.50;;;;;;;9.23;76.78;98945.38;5087287;28;20219;-70
2023/11/11 07:55:23;;;;;;;14.90;10.87;;;;;;;9.23;76.42;98949.66;5091977;28;20296;-69
2023/11/11 07:57:52;;;;;;;15.50;11.53;;;;;;;9.19;76.43;98947.16;5086739;28;20207;-72
2023/11/11 08:00:24;;;;;;;12.17;10.87;;;;;;;9.24;76.82;98946.22;5086253;28;20614;-71
2023/11/11 08:02:52;;;;;;;16.33;11.73;;;;;;;9.25;76.27;98943.63;5088581;28;20208;-72
2023/11/11 08:05:20;;;;;;;15.93;11.60;;;;;;;9.29;75.72;98949.53;5091842;28;20204;-77
2023/11/11 08:07:49;;;;;;;15.80;12.27;;;;;;;9.32;75.68;98941.75;5088845;28;20236;-76
2023/11/11 08:10:22;;;;;;;14.33;11.77;;;;;;;9.34;75.37;98942.53;5083806;28;20228;-68
2023/11/11 08:12:52;;;;;;;14.50;11.50;;;;;;;9.38;74.97;98939.84;5091282;28;20231;-67
2023/11/11 08:15:29;;;;;;;15.60;11.80;;;;;;;9.42;75.01;98935.47;5087012;28;20778;-71
2023/11/11 08:18:01;;;;;;;18.27;11.83;;;;;;;9.40;75.16;98938.09;5089243;28;20243;-65
2023/11/11 08:20:29;;;;;;;16.13;11.80;;;;;;;9.38;74.90;98944.16;5093746;28;20205;-72
2023/11/11 08:22:58;;;;;;;18.33;12.23;;;;;;;9.35;75.46;98952.81;5092764;28;20687;-73
2023/11/11 08:25:27;;;;;;;17.07;12.40;;;;;;;9.43;75.66;98947.47;5093020;28;20203;-73
2023/11/11 08:27:56;;;;;;;17.60;12.70;;;;;;;9.52;75.98;98952.38;5093022;28;20238;-74
2023/11/11 08:30:24;;;;;;;18.50;12.87;;;;;;;9.60;75.55;98953.03;5089461;28;20236;-71
2023/11/11 08:32:53;;;;;;;18.17;13.53;;;;;;;9.58;75.30;98956.53;5072541;28;20543;-71
2023/11/11 08:35:22;;;;;;;19.80;14.50;;;;;;;9.42;75.27;98948.34;5091101;28;20214;-71
2023/11/11 08:37:50;;;;;;;18.93;15.00;;;;;;;9.30;76.31;98958.94;5089554;28;20209;-72
2023/11/11 08:40:18;;;;;;;21.00;15.97;;;;;;;9.20;77.00;98960.84;5091996;28;20235;-71
2023/11/11 08:42:47;;;;;;;20.87;15.90;;;;;;;9.16;77.44;98960.09;5094065;28;20208;-72
2023/11/11 08:45:16;;;;;;;21.80;15.80;;;;;;;9.15;77.58;98960.97;5089510;28;20212;-71
2023/11/11 08:47:45;;;;;;;19.63;15.17;;;;;;;9.16;77.64;98954.09;5086203;28;20196;-71
2023/11/11 08:50:14;;;;;;;20.20;15.80;;;;;;;9.21;77.40;98966.88;5086350;28;20879;-73
2023/11/11 08:52:42;;;;;;;23.50;16.30;;;;;;;9.22;77.43;98960.84;5089110;28;20196;-76
2023/11/11 08:55:11;;;;;;;25.67;17.40;;;;;;;9.12;77.04;98957.63;5089998;28;20277;-76
2023/11/11 08:57:40;;;;;;;24.73;17.03;;;;;;;9.01;78.11;98951.88;5096773;28;20192;-75
2023/11/11 09:00:12;;;;;;;23.67;17.37;;;;;;;8.97;78.99;98956.25;5090733;28;20216;-74
2023/11/11 09:02:40;;;;;;;22.53;16.67;;;;;;;8.97;79.48;98945.97;5093299;28;20250;-74
2023/11/11 09:05:09;;;;;;;23.33;16.87;;;;;;;9.05;79.28;98950.94;5091435;28;20291;-76
2023/11/11 09:07:38;;;;;;;21.60;16.43;;;;;;;9.10;79.14;98944.81;5086860;28;20209;-73
2023/11/11 09:10:07;;;;;;;24.47;17.83;;;;;;;9.21;78.85;98954.00;5088885;28;20279;-74
2023/11/11 09:12:37;;;;;;;25.07;18.10;;;;;;;9.27;78.47;98951.28;5087682;28;20254;-73
2023/11/11 09:15:06;;;;;;;23.27;17.80;;;;;;;9.32;78.63;98949.47;5085601;28;20262;-73
2023/11/11 09:17:36;;;;;;;22.00;17.53;;;;;;;9.36;78.30;98943.38;5087818;28;20243;-76
2023/11/11 09:20:07;;;;;;;24.00;17.60;;;;;;;9.39;77.98;98951.00;5089807;28;20257;-73
2023/11/11 09:22:35;;;;;;;24.50;17.67;;;;;;;9.40;77.97;98947.53;5081915;28;20208;-73
2023/11/11 09:25:05;;;;;;;22.77;17.73;;;;;;;9.44;78.34;98941.44;5099225;28;20196;-73
2023/11/11 09:27:33;;;;;;;22.90;16.70;;;;;;;9.49;77.68;98942.16;5092429;28;20212;-67
2023/11/11 09:30:01;;;;;;;22.43;17.03;;;;;;;9.51;77.70;98942.97;5092699;28;20793;-73
2023/11/11 09:32:29;;;;;;;24.57;17.17;;;;;;;9.54;78.26;98940.34;5094266;28;20197;-71
2023/11/11 09:35:00;;;;;;;25.00;18.57;;;;;;;9.57;78.00;98935.13;5103245;28;20286;-73
2023/11/11 09:37:27;;;;;;;25.70;18.60;;;;;;;9.64;77.99;98935.78;5107775;28;20203;-64
2023/11/11 09:39:55;;;;;;;25.03;18.23;;;;;;;9.67;77.26;98936.56;5102956;28;20212;-72
2023/11/11 09:42:23;;;;;;;25.17;18.27;;;;;;;9.66;77.67;98929.72;5099754;28;20200;-73
2023/11/11 09:44:52;;;;;;;29.90;19.33;;;;;;;9.70;77.26;98919.38;5098543;28;20201;-73
2023/11/11 09:47:29;;;;;;;22.73;18.37;;;;;;;9.75;77.25;98922.66;5092398;28;20226;-73
2023/11/11 09:50:00;;;;;;;23.13;18.30;;;;;;;9.82;76.81;98919.88;5105574;28;20727;-72
2023/11/11 09:52:32;;;;;;;23.33;18.87;;;;;;;9.83;76.83;98910.41;5100838;28;20212;-71
2023/11/11 09:55:01;;;;;;;26.43;19.13;;;;;;;9.81;76.65;98907.91;5093877;28;20602;-71
2023/11/11 09:57:30;;;;;;;24.50;20.07;;;;;;;9.84;76.62;98912.97;5097521;28;20656;-71
2023/11/11 09:59:59;;;;;;;24.87;19.07;;;;;;;9.89;76.54;98905.13;5106217;28;20204;-69
2023/11/11 10:02:27;;;;;;;24.87;18.50;;;;;;;9.91;76.31;98906.78;5092597;28;20199;-71
2023/11/11 10:04:55;;;;;;;23.93;18.63;;;;;;;9.93;75.67;98899.84;5085109;28;20201;-72
2023/11/11 10:07:25;;;;;;;24.57;18.37;;;;;;;9.93;75.42;98901.56;5092492;28;20201;-70
2023/11/11 10:09:53;;;;;;;24.63;19.07;;;;;;;9.94;75.39;98898.09;5074290;28;20211;-68
2023/11/11 10:12:21;;;;;;;25.73;18.83;;;;;;;9.93;75.51;98896.44;5089303;28;20208;-71
2023/11/11 10:14:49;;;;;;;24.90;19.30;;;;;;;9.92;76.24;98889.59;5088540;28;20216;-70
2023/11/11 10:17:17;;;;;;;24.43;17.90;;;;;;;9.94;75.92;98887.81;5088664;28;20262;-70
2023/11/11 10:19:48;;;;;;;25.47;17.93;;;;;;;9.95;75.95;98894.69;5089609;28;20201;-67
2023/11/11 10:22:27;;;;;;;26.93;19.93;;;;;;;9.93;75.64;98888.72;5091355;28;20261;-69
2023/11/11 10:24:56;;;;;;;26.93;19.13;;;;;;;9.94;76.01;98885.25;5096190;28;20292;-70
2023/11/11 10:27:24;;;;;;;24.43;19.27;;;;;;;9.93;75.34;98881.84;5098248;28;20735;-65
2023/11/11 10:29:52;;;;;;;26.67;19.43;;;;;;;9.89;75.89;98885.38;5090955;28;20598;-65
2023/11/11 10:32:21;;;;;;;26.80;20.23;;;;;;;9.85;76.19;98888.09;5089517;28;20238;-67
2023/11/11 10:34:49;;;;;;;26.13;19.77;;;;;;;9.80;76.55;98890.78;5090407;28;20765;-68
2023/11/11 10:37:17;;;;;;;28.00;21.73;;;;;;;9.77;77.28;98882.31;5094913;28;20258;-65
2023/11/11 10:39:46;;;;;;;30.97;22.30;;;;;;;9.78;77.47;98884.00;5086531;28;20681;-67
2023/11/11 10:42:16;;;;;;;32.23;21.33;;;;;;;9.79;77.06;98883.09;5086993;28;21363;-72
2023/11/11 10:44:45;;;;;;;28.73;21.00;;;;;;;9.76;77.10;98888.34;5088294;28;20666;-66
2023/11/11 10:47:14;;;;;;;30.90;20.90;;;;;;;9.74;77.51;98884.97;5090318;28;20212;-70
2023/11/11 10:49:43;;;;;;;30.53;22.10;;;;;;;9.77;77.34;98879.75;5085802;28;20204;-68
2023/11/11 10:52:12;;;;;;;36.67;25.93;;;;;;;9.76;77.69;98880.63;5092199;28;20201;-68
2023/11/11 10:54:42;;;;;;;30.77;22.37;;;;;;;9.76;77.30;98872.91;5087212;28;20197;-67
2023/11/11 10:57:12;;;;;;;30.20;22.23;;;;;;;9.78;77.34;98871.97;5091740;28;20216;-67
2023/11/11 10:59:41;;;;;;;37.30;24.83;;;;;;;9.79;77.48;98876.22;5090827;28;20201;-70
2023/11/11 11:02:11;;;;;;;32.87;22.57;;;;;;;9.81;77.49;98877.03;5075600;28;20305;-66
2023/11/11 11:04:46;;;;;;;33.83;22.80;;;;;;;9.84;77.33;98874.38;5092275;28;20254;-68
2023/11/11 11:07:19;;;;;;;34.10;23.13;;;;;;;9.88;76.68;98873.41;5088776;28;20266;-67
2023/11/11 11:09:54;;;;;;;31.53;22.57;;;;;;;9.89;76.75;98869.09;5091444;28;20205;-68
2023/11/11 11:12:33;;;;;;;34.83;23.00;;;;;;;9.92;76.48;98877.59;5088295;28;20256;-66
2023/11/11 11:15:06;;;;;;;36.63;22.53;;;;;;;9.94;76.26;98880.09;5090806;28;20218;-65
2023/11/11 11:17:38;;;;;;;31.60;22.77;;;;;;;9.94;76.23;98885.25;5091953;28;20241;-67
2023/11/11 11:20:12;;;;;;;32.40;22.77;;;;;;;9.89;76.45;98889.69;5083127;28;20204;-68
2023/11/11 11:22:42;;;;;;;27.77;21.50;;;;;;;9.85;76.45;98886.34;5093132;28;20623;-68
2023/11/11 11:25:33;;;;;;;32.10;21.70;;;;;;;9.79;77.47;98878.78;5084960;28;20857;-67
2023/11/11 11:28:18;;;;;;;36.00;22.20;;;;;;;9.78;77.43;98881.41;5080154;28;20200;-66
2023/11/11 11:30:50;;;;;;;35.70;22.53;;;;;;;9.77;77.56;98880.56;5078569;28;20708;-67
2023/11/11 11:33:20;;;;;;;34.67;22.53;;;;;;;9.75;77.88;98876.34;5091645;28;20275;-68
2023/11/11 11:35:49;;;;;;;36.77;23.17;;;;;;;9.74;77.73;98875.50;5070864;28;20221;-66